Terminal Aerodrome Forecast
Issued by NWS

Home | Current Version | Previous Version | Text Only | Print | Product List | Glossary On
Versions: 1 2 3 4 5 6 7 8 9 10 11 12 13 14 15 16 17 18 19 20 21
000
FTUS46 KPDT 240500
TAFPSC
TAF
KPSC 240537Z 2406/2506 24007KT P6SM SCT120
     FM241200 VRB02KT 6SM BR FEW005 SCT010
      TEMPO 2413/2416 4SM BR FEW002 SCT007
     FM241800 20006KT P6SM FEW010 BKN150
     FM242100 21008KT P6SM SCT080 BKN120
     FM250300 21011KT P6SM VCSH SCT040 BKN060=

USA.gov is the U.S. government's official web portal to all federal, state and local government web resources and services.